createdAt,value
2018-09-27T00:00:19.783Z,0.00
2018-09-27T00:01:19.765Z,0.00
2018-09-27T00:02:19.810Z,0.00
2018-09-27T00:03:19.728Z,0.00
2018-09-27T00:04:19.714Z,0.00
2018-09-27T00:05:19.700Z,0.00
2018-09-27T00:06:19.685Z,0.00
2018-09-27T00:07:19.662Z,0.00
2018-09-27T00:08:19.638Z,0.00
2018-09-27T00:09:19.619Z,0.00
2018-09-27T00:10:19.603Z,0.00
2018-09-27T00:11:19.583Z,0.00
2018-09-27T00:12:19.566Z,0.00
2018-09-27T00:13:19.547Z,0.00
2018-09-27T00:14:19.530Z,0.00
2018-09-27T00:15:19.511Z,0.00
2018-09-27T00:16:19.495Z,0.00
2018-09-27T00:17:19.478Z,0.00
2018-09-27T00:18:19.478Z,0.00
2018-09-27T00:19:19.438Z,0.00
2018-09-27T00:20:19.424Z,0.00
2018-09-27T00:21:19.465Z,0.00
2018-09-27T00:22:19.400Z,0.00
2018-09-27T00:23:19.365Z,0.00
2018-09-27T00:24:19.346Z,0.00
2018-09-27T00:25:19.328Z,0.00
2018-09-27T00:26:19.318Z,0.00
2018-09-27T00:27:19.303Z,0.00
2018-09-27T00:28:19.275Z,0.00
2018-09-27T00:29:19.266Z,0.00
2018-09-27T00:30:19.237Z,0.00
2018-09-27T00:31:19.228Z,0.00
2018-09-27T00:32:19.205Z,0.00
2018-09-27T00:33:19.183Z,0.00
2018-09-27T00:34:19.166Z,0.00
2018-09-27T00:35:19.148Z,0.00
2018-09-27T00:36:19.137Z,0.00
2018-09-27T00:37:19.111Z,0.00
2018-09-27T00:38:19.092Z,0.00
2018-09-27T00:39:19.077Z,0.00
2018-09-27T00:40:19.064Z,0.00
2018-09-27T00:41:19.036Z,0.00
2018-09-27T00:42:19.021Z,0.00
2018-09-27T00:43:19.007Z,0.00
2018-09-27T00:44:18.983Z,0.00
2018-09-27T00:45:18.963Z,0.00
2018-09-27T00:46:18.944Z,0.00
2018-09-27T00:47:18.928Z,0.00
2018-09-27T00:48:19.069Z,0.00
2018-09-27T00:49:18.924Z,0.00
2018-09-27T00:50:18.878Z,0.00
2018-09-27T00:51:18.915Z,0.00
2018-09-27T00:52:18.840Z,0.00
2018-09-27T00:53:18.819Z,0.00
2018-09-27T00:54:18.802Z,0.00
2018-09-27T00:55:18.787Z,0.00
2018-09-27T00:56:18.762Z,0.00
2018-09-27T00:57:18.743Z,0.00
2018-09-27T00:58:18.728Z,0.00
2018-09-27T00:59:18.712Z,0.00
2018-09-27T01:00:18.689Z,0.00
2018-09-27T01:01:18.669Z,0.00
2018-09-27T01:02:18.670Z,0.00
2018-09-27T01:03:18.633Z,0.00
2018-09-27T01:04:18.621Z,0.00
2018-09-27T01:05:18.599Z,0.00
2018-09-27T01:06:18.586Z,0.00
2018-09-27T01:07:18.558Z,0.00
2018-09-27T01:08:18.551Z,0.00
2018-09-27T01:09:18.523Z,0.00
2018-09-27T01:10:18.507Z,0.00
2018-09-27T01:11:18.487Z,0.00
2018-09-27T01:12:18.468Z,0.00
2018-09-27T01:13:18.446Z,0.00
2018-09-27T01:14:18.431Z,0.00
2018-09-27T01:15:18.419Z,0.00
2018-09-27T01:16:18.393Z,0.00
2018-09-27T01:17:18.391Z,0.00
2018-09-27T01:18:18.436Z,0.00
2018-09-27T01:19:18.342Z,0.00
2018-09-27T01:20:18.333Z,0.00
2018-09-27T01:21:18.305Z,0.00
2018-09-27T01:22:18.299Z,0.00
2018-09-27T01:23:18.273Z,0.00
2018-09-27T01:24:18.255Z,0.00
2018-09-27T01:25:18.228Z,0.00
2018-09-27T01:26:18.208Z,0.00
2018-09-27T01:27:18.192Z,0.00
2018-09-27T01:28:18.176Z,0.00
2018-09-27T01:29:18.152Z,0.00
2018-09-27T01:30:18.137Z,0.00
2018-09-27T01:31:18.122Z,0.00
2018-09-27T01:32:18.097Z,0.00
2018-09-27T01:33:18.077Z,0.00
2018-09-27T01:34:18.198Z,0.00
2018-09-27T01:35:18.050Z,0.00
2018-09-27T01:36:18.030Z,0.00
2018-09-27T01:37:18.067Z,0.00
2018-09-27T01:38:17.987Z,0.00
2018-09-27T01:39:17.969Z,0.00
2018-09-27T01:40:18.003Z,0.00
2018-09-27T01:41:17.928Z,0.00
2018-09-27T01:42:17.910Z,0.00
2018-09-27T01:43:17.896Z,0.00
2018-09-27T01:44:17.874Z,0.00
2018-09-27T01:45:17.857Z,0.00
2018-09-27T01:46:17.835Z,0.00
2018-09-27T01:47:17.819Z,0.00
2018-09-27T01:48:17.799Z,0.00
2018-09-27T01:49:17.781Z,0.00
2018-09-27T01:50:17.762Z,0.00
2018-09-27T01:51:17.744Z,0.00
2018-09-27T01:52:17.730Z,0.00
2018-09-27T01:53:17.705Z,0.00
2018-09-27T01:54:17.687Z,0.00
2018-09-27T01:55:17.668Z,0.00
2018-09-27T01:56:17.822Z,0.00
2018-09-27T01:57:17.643Z,0.00
2018-09-27T01:58:17.618Z,0.00
2018-09-27T01:59:17.660Z,0.00
2018-09-27T02:00:17.580Z,0.00
2018-09-27T02:01:17.556Z,0.00
2018-09-27T02:02:17.539Z,0.00
2018-09-27T02:03:17.519Z,0.00
2018-09-27T02:04:17.503Z,0.00
2018-09-27T02:05:17.483Z,0.00
2018-09-27T02:06:17.464Z,0.00
2018-09-27T02:07:17.461Z,0.00
2018-09-27T02:08:17.437Z,0.00
2018-09-27T02:09:17.409Z,0.00
2018-09-27T02:10:17.388Z,0.00
2018-09-27T02:11:17.370Z,0.00
2018-09-27T02:12:17.353Z,0.00
2018-09-27T02:13:17.334Z,0.00
2018-09-27T02:14:17.324Z,0.00
2018-09-27T02:15:17.297Z,0.00
2018-09-27T02:16:17.279Z,0.00
2018-09-27T02:17:17.258Z,0.00
2018-09-27T02:18:17.249Z,0.00
2018-09-27T02:19:17.225Z,0.00
2018-09-27T02:20:17.346Z,0.00
2018-09-27T02:21:17.184Z,0.00
2018-09-27T02:22:17.168Z,0.00
2018-09-27T02:23:17.149Z,0.00
2018-09-27T02:24:17.140Z,0.00
2018-09-27T02:25:17.108Z,0.00
2018-09-27T02:26:17.152Z,0.00
2018-09-27T02:27:17.072Z,0.00
2018-09-27T02:28:17.052Z,0.00
2018-09-27T02:29:17.036Z,0.00
2018-09-27T02:30:17.018Z,0.00
2018-09-27T02:31:16.998Z,0.00
2018-09-27T02:32:16.978Z,0.00
2018-09-27T02:33:16.963Z,0.00
2018-09-27T02:34:16.942Z,0.00
2018-09-27T02:35:16.925Z,0.00
2018-09-27T02:36:16.908Z,0.00
2018-09-27T02:37:16.884Z,0.00
2018-09-27T02:38:16.866Z,0.00
2018-09-27T02:39:16.849Z,0.00
2018-09-27T02:40:16.832Z,0.00
2018-09-27T02:41:16.812Z,0.00
2018-09-27T02:42:16.951Z,0.00
2018-09-27T02:43:16.774Z,0.00
2018-09-27T02:44:16.760Z,0.00
2018-09-27T02:45:16.770Z,0.00
2018-09-27T02:46:16.721Z,0.00
2018-09-27T02:47:16.699Z,0.00
2018-09-27T02:48:16.682Z,0.00
2018-09-27T02:49:16.661Z,0.00
2018-09-27T02:50:16.654Z,0.00
2018-09-27T02:51:16.625Z,0.00
2018-09-27T02:52:16.610Z,0.00
2018-09-27T02:53:16.588Z,0.00
2018-09-27T02:54:16.570Z,0.00
2018-09-27T02:55:16.549Z,0.00
2018-09-27T02:56:16.533Z,0.00
2018-09-27T02:57:16.522Z,0.00
2018-09-27T02:58:16.493Z,0.00
2018-09-27T02:59:16.477Z,0.00
2018-09-27T03:00:16.468Z,0.00
2018-09-27T03:01:16.440Z,0.00
2018-09-27T03:02:16.421Z,0.00
2018-09-27T03:03:16.402Z,0.00
2018-09-27T03:04:16.381Z,0.00
2018-09-27T03:05:16.364Z,0.00
2018-09-27T03:06:16.348Z,0.00
2018-09-27T03:07:16.329Z,0.00
2018-09-27T03:08:16.317Z,0.00
2018-09-27T03:09:16.473Z,0.00
2018-09-27T03:10:16.271Z,0.00
2018-09-27T03:11:16.262Z,0.00
2018-09-27T03:12:16.356Z,0.00
2018-09-27T03:13:16.219Z,0.00
2018-09-27T03:14:16.198Z,0.00
2018-09-27T03:15:16.180Z,0.00
2018-09-27T03:16:16.168Z,0.00
2018-09-27T03:17:16.149Z,0.00
2018-09-27T03:18:16.128Z,0.00
2018-09-27T03:19:16.107Z,0.00
2018-09-27T03:20:16.086Z,0.00
2018-09-27T03:21:16.072Z,0.00
2018-09-27T03:22:16.061Z,0.00
2018-09-27T03:23:16.036Z,0.00
2018-09-27T03:24:16.020Z,0.00
2018-09-27T03:25:15.997Z,0.00
2018-09-27T03:26:15.979Z,0.00
2018-09-27T03:27:15.960Z,0.00
2018-09-27T03:28:15.944Z,0.00
2018-09-27T03:29:15.922Z,0.00
2018-09-27T03:30:15.909Z,0.00
2018-09-27T03:31:15.889Z,0.00
2018-09-27T03:32:15.873Z,0.00
2018-09-27T03:33:15.851Z,0.00
2018-09-27T03:34:15.852Z,0.00
2018-09-27T03:35:15.822Z,0.00
2018-09-27T03:36:15.797Z,0.00
2018-09-27T03:37:15.784Z,0.00
2018-09-27T03:38:15.757Z,0.00
2018-09-27T03:39:15.745Z,0.00
2018-09-27T03:40:15.767Z,0.00
2018-09-27T03:41:15.703Z,0.00
2018-09-27T03:42:15.687Z,0.00
2018-09-27T03:43:15.674Z,0.00
2018-09-27T03:44:15.650Z,0.00
2018-09-27T03:45:15.631Z,0.00
2018-09-27T03:46:15.611Z,0.00
2018-09-27T03:47:15.597Z,0.00
2018-09-27T03:48:15.577Z,0.00
2018-09-27T03:49:15.557Z,0.00
2018-09-27T03:50:15.538Z,0.00
2018-09-27T03:51:15.521Z,0.00
2018-09-27T03:52:15.506Z,0.00
2018-09-27T03:53:15.482Z,0.00
2018-09-27T03:54:15.465Z,0.00
2018-09-27T03:55:15.449Z,0.00
2018-09-27T03:56:15.431Z,0.00
2018-09-27T03:57:15.410Z,0.00
2018-09-27T03:58:15.418Z,0.00
2018-09-27T03:59:15.375Z,0.00
2018-09-27T04:00:15.360Z,0.00
2018-09-27T04:01:15.467Z,0.00
2018-09-27T04:02:15.322Z,0.00
2018-09-27T04:03:15.339Z,0.00
2018-09-27T04:04:15.283Z,0.00
2018-09-27T04:05:15.268Z,0.00
2018-09-27T04:06:15.253Z,0.00
2018-09-27T04:07:15.227Z,0.00
2018-09-27T04:08:15.214Z,0.00
2018-09-27T04:09:15.193Z,0.00
2018-09-27T04:10:15.173Z,0.00
2018-09-27T04:11:15.153Z,0.00
2018-09-27T04:12:15.149Z,0.00
2018-09-27T04:13:15.120Z,0.00
2018-09-27T04:14:15.099Z,0.00
2018-09-27T04:15:15.086Z,0.00
2018-09-27T04:16:15.064Z,0.00
2018-09-27T04:17:15.045Z,0.00
2018-09-27T04:18:15.027Z,0.00
2018-09-27T04:19:15.009Z,0.00
2018-09-27T04:20:15.095Z,0.00
2018-09-27T04:21:14.978Z,0.00
2018-09-27T04:22:14.954Z,0.00
2018-09-27T04:23:14.936Z,0.00
2018-09-27T04:24:14.923Z,0.00
2018-09-27T04:25:14.899Z,0.00
2018-09-27T04:26:14.892Z,0.00
2018-09-27T04:27:14.864Z,0.00
2018-09-27T04:28:14.845Z,0.00
2018-09-27T04:29:14.829Z,0.00
2018-09-27T04:30:14.814Z,0.00
2018-09-27T04:31:14.790Z,0.00
2018-09-27T04:32:14.780Z,0.00
2018-09-27T04:33:14.759Z,0.00
2018-09-27T04:34:14.745Z,0.00
2018-09-27T04:35:14.726Z,0.00
2018-09-27T04:36:14.702Z,0.00
2018-09-27T04:37:14.688Z,0.00
2018-09-27T04:38:14.662Z,0.00
2018-09-27T04:39:14.662Z,0.00
2018-09-27T04:40:14.634Z,0.00
2018-09-27T04:41:14.607Z,0.00
2018-09-27T04:42:14.591Z,0.00
2018-09-27T04:43:14.580Z,0.00
2018-09-27T04:44:14.555Z,0.00
2018-09-27T04:45:14.541Z,0.00
2018-09-27T04:46:14.517Z,0.00
2018-09-27T04:47:14.501Z,0.00
2018-09-27T04:48:14.488Z,0.00
2018-09-27T04:49:14.462Z,0.00
2018-09-27T04:50:14.476Z,0.00
2018-09-27T04:51:14.426Z,0.00
2018-09-27T04:52:14.413Z,0.00
2018-09-27T04:53:14.394Z,0.00
2018-09-27T04:54:14.381Z,0.00
2018-09-27T04:55:14.354Z,0.00
2018-09-27T04:56:14.335Z,0.00
2018-09-27T04:57:14.315Z,0.00
2018-09-27T04:58:14.297Z,0.00
2018-09-27T04:59:14.280Z,0.00
2018-09-27T05:00:14.262Z,0.00
2018-09-27T05:01:14.242Z,0.00
2018-09-27T05:02:14.232Z,0.00
2018-09-27T05:03:14.212Z,0.00
2018-09-27T05:04:14.193Z,0.00
2018-09-27T05:05:14.172Z,0.00
2018-09-27T05:06:14.182Z,0.00
2018-09-27T05:07:14.134Z,0.00
2018-09-27T05:08:14.117Z,0.00
2018-09-27T05:09:14.100Z,0.00
2018-09-27T05:10:14.092Z,0.00
2018-09-27T05:11:14.063Z,0.00
2018-09-27T05:12:14.068Z,0.00
2018-09-27T05:13:14.030Z,0.00
2018-09-27T05:14:14.013Z,0.00
2018-09-27T05:15:13.991Z,0.00
2018-09-27T05:16:13.975Z,0.00
2018-09-27T05:17:13.960Z,0.00
2018-09-27T05:18:13.940Z,0.00
2018-09-27T05:19:13.920Z,0.00
2018-09-27T05:20:13.899Z,0.00
2018-09-27T05:21:13.892Z,0.00
2018-09-27T05:22:13.883Z,0.00
2018-09-27T05:23:13.945Z,0.00
2018-09-27T05:24:13.836Z,0.00
2018-09-27T05:25:13.808Z,5.63
2018-09-27T05:26:13.835Z,5.63
2018-09-27T05:27:13.816Z,5.63
2018-09-27T05:28:13.756Z,5.63
2018-09-27T05:29:13.740Z,5.63
2018-09-27T05:30:13.724Z,5.63
2018-09-27T05:31:13.706Z,5.63
2018-09-27T05:32:13.685Z,5.63
2018-09-27T05:33:13.667Z,5.63
2018-09-27T05:34:13.647Z,5.63
2018-09-27T05:35:13.639Z,11.25
2018-09-27T05:36:13.615Z,11.25
2018-09-27T05:37:13.592Z,11.25
2018-09-27T05:38:13.580Z,11.25
2018-09-27T05:39:13.561Z,11.25
2018-09-27T05:40:13.557Z,11.25
2018-09-27T05:41:13.520Z,16.88
2018-09-27T05:42:13.602Z,16.88
2018-09-27T05:43:13.481Z,16.88
2018-09-27T05:44:13.466Z,16.88
2018-09-27T05:45:13.513Z,16.88
2018-09-27T05:46:13.434Z,22.50
2018-09-27T05:47:13.412Z,22.50
2018-09-27T05:48:13.451Z,22.50
2018-09-27T05:49:13.374Z,28.13
2018-09-27T05:50:13.358Z,28.13
2018-09-27T05:51:13.348Z,28.13
2018-09-27T05:52:13.322Z,33.75
2018-09-27T05:53:13.301Z,33.75
2018-09-27T05:54:13.294Z,33.75
2018-09-27T05:55:13.266Z,33.75
2018-09-27T05:56:13.250Z,33.75
2018-09-27T05:57:13.235Z,33.75
2018-09-27T05:58:13.211Z,33.75
2018-09-27T05:59:13.197Z,33.75
2018-09-27T06:00:13.176Z,33.75
2018-09-27T06:01:13.170Z,39.38
2018-09-27T06:02:13.157Z,39.38
2018-09-27T06:03:13.132Z,45.00
2018-09-27T06:04:13.107Z,50.63
2018-09-27T06:05:13.093Z,50.63
2018-09-27T06:06:13.072Z,50.63
2018-09-27T06:07:13.049Z,56.25
2018-09-27T06:08:13.032Z,61.88
2018-09-27T06:09:13.014Z,56.25
2018-09-27T06:10:12.993Z,56.25
2018-09-27T06:11:12.997Z,56.25
2018-09-27T06:12:12.960Z,56.25
2018-09-27T06:13:12.938Z,56.25
2018-09-27T06:14:12.924Z,56.25
2018-09-27T06:15:12.964Z,61.88
2018-09-27T06:16:12.887Z,61.88
2018-09-27T06:17:12.869Z,61.88
2018-09-27T06:18:12.856Z,61.88
2018-09-27T06:19:12.883Z,67.50
2018-09-27T06:20:12.823Z,67.50
2018-09-27T06:21:12.797Z,73.13
2018-09-27T06:22:12.783Z,78.75
2018-09-27T06:23:12.760Z,90.00
2018-09-27T06:24:12.744Z,90.00
2018-09-27T06:25:12.722Z,95.63
2018-09-27T06:26:12.788Z,95.63
2018-09-27T06:27:12.693Z,95.63
2018-09-27T06:28:12.672Z,95.63
2018-09-27T06:29:12.659Z,95.63
2018-09-27T06:30:12.634Z,101.25
2018-09-27T06:31:12.722Z,112.50
2018-09-27T06:32:12.602Z,129.38
2018-09-27T06:33:12.581Z,140.63
2018-09-27T06:34:12.574Z,140.63
2018-09-27T06:35:12.606Z,135.00
2018-09-27T06:36:12.529Z,135.00
2018-09-27T06:37:12.514Z,135.00
2018-09-27T06:38:12.492Z,140.63
2018-09-27T06:39:12.484Z,151.88
2018-09-27T06:40:12.490Z,163.13
2018-09-27T06:41:12.437Z,180.00
2018-09-27T06:42:12.422Z,196.88
2018-09-27T06:43:12.404Z,202.50
2018-09-27T06:44:12.384Z,213.75
2018-09-27T06:45:12.369Z,225.00
2018-09-27T06:46:12.352Z,230.63
2018-09-27T06:47:12.338Z,230.63
2018-09-27T06:48:12.343Z,241.88
2018-09-27T06:49:12.303Z,241.88
2018-09-27T06:50:12.279Z,236.25
2018-09-27T06:51:12.261Z,225.00
2018-09-27T06:52:12.246Z,225.00
2018-09-27T06:53:12.226Z,225.00
2018-09-27T06:54:12.212Z,230.63
2018-09-27T06:55:12.439Z,236.25
2018-09-27T06:56:12.281Z,236.25
2018-09-27T06:57:12.156Z,236.25
2018-09-27T06:58:12.188Z,230.63
2018-09-27T06:59:12.122Z,219.38
2018-09-27T07:00:12.106Z,202.50
2018-09-27T07:01:12.194Z,191.25
2018-09-27T07:02:12.069Z,174.38
2018-09-27T07:03:12.064Z,163.13
2018-09-27T07:04:12.041Z,151.88
2018-09-27T07:05:12.018Z,151.88
2018-09-27T07:06:11.999Z,151.88
2018-09-27T07:07:11.988Z,151.88
2018-09-27T07:08:11.970Z,151.88
2018-09-27T07:09:11.950Z,151.88
2018-09-27T07:10:11.932Z,151.88
2018-09-27T07:11:11.912Z,151.88
2018-09-27T07:12:12.006Z,151.88
2018-09-27T07:13:11.879Z,151.88
2018-09-27T07:14:11.861Z,151.88
2018-09-27T07:15:11.842Z,151.88
2018-09-27T07:16:11.829Z,151.88
2018-09-27T07:17:11.823Z,151.88
2018-09-27T07:18:11.790Z,151.88
2018-09-27T07:19:11.774Z,151.88
2018-09-27T07:20:11.824Z,151.88
2018-09-27T07:21:11.740Z,157.50
2018-09-27T07:22:11.725Z,157.50
2018-09-27T07:23:11.755Z,157.50
2018-09-27T07:24:11.707Z,157.50
2018-09-27T07:25:11.755Z,157.50
2018-09-27T07:26:11.654Z,157.50
2018-09-27T07:27:11.639Z,157.50
2018-09-27T07:28:11.618Z,163.13
2018-09-27T07:29:11.597Z,163.13
2018-09-27T07:30:11.584Z,163.13
2018-09-27T07:31:11.680Z,163.13
2018-09-27T07:32:11.566Z,163.13
2018-09-27T07:33:11.527Z,168.75
2018-09-27T07:34:11.513Z,168.75
2018-09-27T07:35:11.493Z,168.75
2018-09-27T07:36:11.490Z,168.75
2018-09-27T07:37:11.462Z,168.75
2018-09-27T07:38:11.438Z,168.75
2018-09-27T07:39:11.576Z,168.75
2018-09-27T07:40:11.407Z,174.38
2018-09-27T07:41:11.393Z,174.38
2018-09-27T07:42:11.378Z,174.38
2018-09-27T07:43:11.352Z,174.38
2018-09-27T07:44:11.337Z,174.38
2018-09-27T07:45:11.318Z,174.38
2018-09-27T07:46:11.296Z,174.38
2018-09-27T07:47:11.396Z,180.00
2018-09-27T07:48:11.263Z,180.00
2018-09-27T07:49:11.248Z,180.00
2018-09-27T07:50:11.242Z,180.00
2018-09-27T07:51:11.218Z,185.63
2018-09-27T07:52:11.192Z,180.00
2018-09-27T07:53:11.180Z,180.00
2018-09-27T07:54:11.189Z,180.00
2018-09-27T07:55:11.144Z,185.63
2018-09-27T07:56:11.123Z,185.63
2018-09-27T07:57:11.100Z,185.63
2018-09-27T07:58:11.087Z,185.63
2018-09-27T07:59:11.077Z,185.63
2018-09-27T08:00:11.060Z,191.25
2018-09-27T08:01:11.035Z,230.63
2018-09-27T08:02:11.015Z,219.38
2018-09-27T08:03:11.081Z,253.13
2018-09-27T08:04:10.990Z,691.88
2018-09-27T08:05:10.967Z,208.13
2018-09-27T08:06:10.951Z,236.25
2018-09-27T08:07:10.928Z,241.88
2018-09-27T08:08:10.908Z,354.38
2018-09-27T08:09:10.949Z,208.13
2018-09-27T08:10:10.883Z,230.63
2018-09-27T08:11:10.926Z,225.00
2018-09-27T08:12:10.840Z,208.13
2018-09-27T08:13:10.825Z,225.00
2018-09-27T08:14:10.808Z,208.13
2018-09-27T08:15:10.791Z,219.38
2018-09-27T08:16:10.775Z,213.75
2018-09-27T08:17:10.815Z,213.75
2018-09-27T08:18:10.758Z,225.00
2018-09-27T08:19:10.718Z,236.25
2018-09-27T08:20:10.704Z,225.00
2018-09-27T08:21:10.849Z,303.75
2018-09-27T08:22:10.672Z,787.50
2018-09-27T08:23:10.653Z,900.00
2018-09-27T08:24:10.642Z,787.50
2018-09-27T08:25:10.639Z,230.63
2018-09-27T08:26:10.603Z,219.38
2018-09-27T08:27:10.588Z,247.50
2018-09-27T08:28:10.618Z,258.75
2018-09-27T08:29:10.556Z,230.63
2018-09-27T08:30:10.551Z,236.25
2018-09-27T08:31:10.554Z,416.25
2018-09-27T08:32:10.499Z,315.00
2018-09-27T08:33:10.491Z,416.25
2018-09-27T08:34:10.481Z,225.00
2018-09-27T08:35:10.447Z,433.13
2018-09-27T08:36:10.494Z,230.63
2018-09-27T08:37:10.417Z,230.63
2018-09-27T08:38:10.446Z,253.13
2018-09-27T08:39:10.382Z,258.75
2018-09-27T08:40:10.366Z,230.63
2018-09-27T08:41:10.348Z,230.63
2018-09-27T08:42:10.334Z,230.63
2018-09-27T08:43:10.319Z,241.88
2018-09-27T08:44:10.297Z,247.50
2018-09-27T08:45:10.413Z,331.88
2018-09-27T08:46:10.271Z,275.63
2018-09-27T08:47:10.261Z,320.63
2018-09-27T08:48:10.233Z,264.38
2018-09-27T08:49:10.216Z,281.25
2018-09-27T08:50:10.202Z,309.38
2018-09-27T08:51:10.192Z,331.88
2018-09-27T08:52:10.221Z,337.50
2018-09-27T08:53:10.152Z,1468.13
2018-09-27T08:54:10.150Z,399.38
2018-09-27T08:55:10.240Z,731.25
2018-09-27T08:56:10.242Z,1299.38
2018-09-27T08:57:10.085Z,1715.63
2018-09-27T08:58:10.072Z,798.75
2018-09-27T08:59:10.056Z,1136.25
2018-09-27T09:00:10.040Z,652.50
2018-09-27T09:01:10.022Z,883.13
2018-09-27T09:02:10.017Z,753.75
2018-09-27T09:03:09.990Z,669.38
2018-09-27T09:04:09.976Z,838.13
2018-09-27T09:05:09.961Z,472.50
2018-09-27T09:06:09.952Z,450.00
2018-09-27T09:07:09.931Z,1125.00
2018-09-27T09:08:09.965Z,669.38
2018-09-27T09:09:09.908Z,573.75
2018-09-27T09:10:09.885Z,618.75
2018-09-27T09:11:09.911Z,1434.38
2018-09-27T09:12:09.905Z,2041.88
2018-09-27T09:13:09.863Z,2356.88
2018-09-27T09:14:09.829Z,2244.38
2018-09-27T09:15:09.820Z,2491.88
2018-09-27T09:16:09.818Z,2188.13
2018-09-27T09:17:09.792Z,2008.13
2018-09-27T09:18:09.773Z,1670.63
2018-09-27T09:19:09.760Z,1029.38
2018-09-27T09:20:10.357Z,1237.50
2018-09-27T09:21:09.743Z,1468.13
2018-09-27T09:22:09.722Z,680.63
2018-09-27T09:23:09.709Z,658.13
2018-09-27T09:24:09.700Z,1254.38
2018-09-27T09:25:09.684Z,2733.75
2018-09-27T09:26:09.704Z,1822.50
2018-09-27T09:27:09.669Z,911.25
2018-09-27T09:28:09.660Z,433.13
2018-09-27T09:29:09.642Z,466.88
2018-09-27T09:30:09.630Z,1918.13
2018-09-27T09:31:09.611Z,2244.38
2018-09-27T09:32:09.602Z,444.38
2018-09-27T09:33:09.588Z,697.50
2018-09-27T09:34:09.576Z,883.13
2018-09-27T09:35:09.567Z,1451.25
2018-09-27T09:36:09.556Z,1192.50
2018-09-27T09:37:09.547Z,1046.25
2018-09-27T09:38:09.531Z,669.38
2018-09-27T09:39:09.516Z,1456.88
2018-09-27T09:40:09.508Z,2542.50
2018-09-27T09:41:09.492Z,2626.88
2018-09-27T09:42:09.481Z,2621.25
2018-09-27T09:43:09.472Z,2565.00
2018-09-27T09:44:09.461Z,2733.75
2018-09-27T09:45:09.451Z,2930.63
2018-09-27T09:46:09.442Z,3054.38
2018-09-27T09:47:09.427Z,3009.38
2018-09-27T09:48:09.417Z,2919.38
2018-09-27T09:49:09.416Z,2986.88
2018-09-27T09:50:09.434Z,2773.13
2018-09-27T09:51:09.416Z,2649.38
2018-09-27T09:52:09.380Z,2570.63
2018-09-27T09:53:09.369Z,2576.25
2018-09-27T09:54:09.411Z,2846.25
2018-09-27T09:55:09.769Z,2930.63
2018-09-27T09:56:09.347Z,2975.63
2018-09-27T09:58:13.698Z,2981.25
2018-09-27T09:59:14.351Z,2964.38
2018-09-27T10:04:38.784Z,2941.88
2018-09-27T10:05:38.784Z,2964.38
2018-09-27T10:06:38.769Z,3031.88
2018-09-27T10:07:38.764Z,2958.75
2018-09-27T10:08:38.758Z,2835.00
2018-09-27T10:09:38.756Z,2941.88
2018-09-27T10:10:38.747Z,2941.88
2018-09-27T10:11:38.750Z,2986.88
2018-09-27T10:12:38.730Z,3144.38
2018-09-27T10:13:38.727Z,3060.00
2018-09-27T10:14:38.994Z,3144.38
2018-09-27T10:15:38.727Z,3071.25
2018-09-27T10:16:38.708Z,3144.38
2018-09-27T10:17:38.738Z,2458.13
2018-09-27T10:18:38.704Z,2908.13
2018-09-27T10:19:38.697Z,2998.13
2018-09-27T10:20:38.709Z,1361.25
2018-09-27T10:22:38.696Z,2992.50
2018-09-27T10:25:21.510Z,2936.25
2018-09-27T10:26:21.494Z,2941.88
2018-09-27T10:27:21.529Z,3031.88
2018-09-27T10:28:21.481Z,2936.25
2018-09-27T10:29:21.473Z,2913.75
2018-09-27T10:30:21.469Z,2846.25
2018-09-27T10:31:21.471Z,3009.38
2018-09-27T10:32:21.486Z,2986.88
2018-09-27T10:33:21.449Z,2851.88
2018-09-27T10:34:24.269Z,2851.88
2018-09-27T10:35:24.068Z,2919.38
2018-09-27T10:36:21.436Z,2823.75
2018-09-27T10:37:21.422Z,2756.25
2018-09-27T10:38:21.423Z,2840.63
2018-09-27T10:40:29.420Z,2913.75
2018-09-27T10:41:26.989Z,2790.00
2018-09-27T10:45:56.252Z,2716.88
2018-09-27T10:46:23.040Z,2238.75
2018-09-27T10:47:23.046Z,2131.88
2018-09-27T10:48:23.025Z,2390.63
2018-09-27T10:49:23.035Z,2739.38
2018-09-27T10:50:23.021Z,2761.88
2018-09-27T10:51:23.129Z,2739.38
2018-09-27T10:52:23.007Z,2733.75
2018-09-27T10:53:22.992Z,2733.75
2018-09-27T10:54:22.989Z,2919.38
2018-09-27T10:55:22.982Z,2891.25
2018-09-27T10:56:22.976Z,2469.38
2018-09-27T10:57:22.974Z,2334.38
2018-09-27T10:58:22.963Z,2716.88
2018-09-27T10:59:22.962Z,2902.50
2018-09-27T11:00:22.961Z,3003.75
2018-09-27T11:01:22.970Z,2812.50
2018-09-27T11:02:22.943Z,2784.38
2018-09-27T11:03:22.937Z,2666.25
2018-09-27T11:04:22.931Z,2705.63
2018-09-27T11:05:22.927Z,2829.38
2018-09-27T11:06:22.920Z,2941.88
2018-09-27T11:07:22.916Z,2964.38
2018-09-27T11:08:22.910Z,2868.75
2018-09-27T11:09:22.903Z,2970.00
2018-09-27T11:10:22.916Z,2947.50
2018-09-27T11:11:22.897Z,2655.00
2018-09-27T11:12:22.892Z,2424.38
2018-09-27T11:13:22.882Z,2430.00
2018-09-27T11:14:22.883Z,2491.88
2018-09-27T11:15:22.878Z,2649.38
2018-09-27T11:16:22.934Z,2823.75
2018-09-27T11:17:22.866Z,2733.75
2018-09-27T11:18:22.855Z,2733.75
2018-09-27T11:19:22.850Z,2649.38
2018-09-27T11:20:22.847Z,2508.75
2018-09-27T11:21:22.844Z,2559.38
2018-09-27T11:22:22.832Z,2621.25
2018-09-27T11:23:22.842Z,2716.88
2018-09-27T11:24:22.820Z,2604.38
2018-09-27T11:25:22.814Z,2666.25
2018-09-27T11:26:22.810Z,2559.38
2018-09-27T11:27:22.872Z,2233.13
2018-09-27T11:28:22.799Z,2390.63
2018-09-27T11:29:22.791Z,2525.63
2018-09-27T11:30:22.783Z,2553.75
2018-09-27T11:31:22.783Z,2401.88
2018-09-27T11:32:22.771Z,2300.63
2018-09-27T11:34:06.391Z,2188.13
2018-09-27T11:35:10.429Z,2351.25
2018-09-27T11:36:06.379Z,2514.38
2018-09-27T11:37:06.384Z,2525.63
2018-09-27T11:38:06.367Z,2475.00
2018-09-27T11:39:06.366Z,2508.75
2018-09-27T11:40:06.353Z,2188.13
2018-09-27T11:41:06.353Z,2216.25
2018-09-27T11:42:06.332Z,2289.38
2018-09-27T11:43:06.331Z,2385.00
2018-09-27T11:44:06.355Z,1608.75
2018-09-27T11:45:06.314Z,489.38
2018-09-27T11:46:06.303Z,416.25
2018-09-27T11:47:06.299Z,382.50
2018-09-27T11:48:06.293Z,360.00
2018-09-27T11:49:06.371Z,337.50
2018-09-27T11:50:06.358Z,326.25
2018-09-27T11:51:06.270Z,309.38
2018-09-27T11:52:06.259Z,298.13
2018-09-27T11:53:06.340Z,292.50
2018-09-27T11:54:06.240Z,286.88
2018-09-27T11:55:06.258Z,275.63
2018-09-27T11:56:39.433Z,270.00
2018-09-27T11:57:06.215Z,264.38
2018-09-27T11:58:06.384Z,253.13
2018-09-27T11:59:06.268Z,247.50
2018-09-27T12:00:06.204Z,241.88
2018-09-27T12:01:06.193Z,241.88
2018-09-27T12:02:06.177Z,247.50
2018-09-27T12:03:06.159Z,230.63
2018-09-27T12:04:06.157Z,230.63
2018-09-27T12:05:06.147Z,225.00
2018-09-27T12:06:06.134Z,225.00
2018-09-27T12:07:06.120Z,219.38
2018-09-27T12:08:06.111Z,219.38
2018-09-27T12:09:06.115Z,208.13
2018-09-27T12:10:06.098Z,202.50
2018-09-27T12:11:06.082Z,202.50
2018-09-27T12:12:06.171Z,202.50
2018-09-27T12:13:06.061Z,202.50
2018-09-27T12:14:06.061Z,202.50
2018-09-27T12:15:06.044Z,202.50
2018-09-27T12:16:06.031Z,202.50
2018-09-27T12:17:06.065Z,202.50
2018-09-27T12:18:06.009Z,196.88
2018-09-27T12:19:05.999Z,196.88
2018-09-27T12:20:06.065Z,196.88
2018-09-27T12:21:05.977Z,196.88
2018-09-27T12:22:05.972Z,196.88
2018-09-27T12:23:06.055Z,196.88
2018-09-27T12:24:05.947Z,196.88
2018-09-27T12:25:05.939Z,196.88
2018-09-27T12:26:05.934Z,196.88
2018-09-27T12:27:05.911Z,196.88
2018-09-27T12:28:05.905Z,191.25
2018-09-27T12:29:05.888Z,191.25
2018-09-27T12:30:05.891Z,191.25
2018-09-27T12:31:05.968Z,196.88
2018-09-27T12:32:05.860Z,191.25
2018-09-27T12:33:05.849Z,191.25
2018-09-27T12:34:05.869Z,191.25
2018-09-27T12:35:05.819Z,191.25
2018-09-27T12:36:05.817Z,191.25
2018-09-27T12:37:05.797Z,191.25
2018-09-27T12:38:05.784Z,191.25
2018-09-27T12:39:05.775Z,191.25
2018-09-27T12:40:05.759Z,191.25
2018-09-27T12:41:05.756Z,191.25
2018-09-27T12:42:05.990Z,191.25
2018-09-27T12:43:05.728Z,191.25
2018-09-27T12:44:05.717Z,191.25
2018-09-27T12:45:05.790Z,185.63
2018-09-27T12:46:05.767Z,191.25
2018-09-27T12:47:05.678Z,185.63
2018-09-27T12:48:05.742Z,185.63
2018-09-27T12:49:05.658Z,185.63
2018-09-27T12:50:05.645Z,185.63
2018-09-27T12:51:05.659Z,185.63
2018-09-27T12:52:05.873Z,185.63
2018-09-27T12:53:05.770Z,185.63
2018-09-27T12:54:05.679Z,185.63
2018-09-27T12:55:05.583Z,185.63
2018-09-27T12:56:05.637Z,185.63
2018-09-27T12:57:05.717Z,185.63
2018-09-27T12:58:05.546Z,185.63
2018-09-27T12:59:05.534Z,185.63